Aviation Digital Data Service (ADDS)

Output produced by METARs form (2336 UTC 01 September 2014)
found at http://aviationweather.gov/adds/metars/
 
KPVD 012321Z 0200/0224 22008KT P6SM FEW040 SCT200 
     FM020600 22004KT 3SM BR BKN010 
     FM020900 22004KT 1SM BR BKN008 
     FM021200 VRB03KT 3SM BR BKN025 
     FM021300 22005KT P6SM SCT250 
     FM021800 20009KT P6SM FEW250